Time;durP1;ratioP1;P1;durP2;ratioP2;P2;SDS_P1;SDS_P2;PMS_P1;PMS_P2;Temp;Humidity;BMP_temperature;BMP_pressure;BME280_temperature;BME280_humidity;BME280_pressure;Samples;Min_cycle;Max_cycle;Signal;HPM_P1;HPM_P2
2023/06/15 00:00:56;;;;;;;5.10;4.60;;;;;;;16.81;100.00;100474.96;106047;1254;71777;-84
2023/06/15 00:03:23;;;;;;;5.20;4.00;;;;;;;16.83;100.00;100469.06;105689;1254;63902;-84
2023/06/15 00:05:51;;;;;;;5.00;4.40;;;;;;;16.85;100.00;100469.98;105909;1252;60472;-85
2023/06/15 00:08:19;;;;;;;4.70;3.80;;;;;;;16.87;100.00;100470.51;105943;1254;73778;-84
2023/06/15 00:10:46;;;;;;;7.00;4.00;;;;;;;16.89;100.00;100470.18;105911;1256;64915;-84
2023/06/15 00:13:15;;;;;;;4.20;3.70;;;;;;;16.89;100.00;100468.62;105886;1254;72649;-84
2023/06/15 00:15:42;;;;;;;4.90;4.40;;;;;;;16.88;100.00;100469.92;105954;1254;60540;-86
2023/06/15 00:18:09;;;;;;;6.00;4.90;;;;;;;16.88;100.00;100468.86;105817;1254;60523;-84
2023/06/15 00:20:37;;;;;;;6.20;4.20;;;;;;;16.88;100.00;100466.72;105863;1256;73779;-87
2023/06/15 00:23:05;;;;;;;7.20;5.00;;;;;;;16.88;100.00;100461.45;105926;1254;62473;-84
2023/06/15 00:25:33;;;;;;;8.60;4.40;;;;;;;16.88;100.00;100460.34;105889;1254;72583;-83
2023/06/15 00:28:01;;;;;;;5.80;4.10;;;;;;;16.88;100.00;100457.16;105921;1254;60836;-88
2023/06/15 00:30:27;;;;;;;5.40;4.50;;;;;;;16.89;100.00;100450.73;105861;1254;60565;-84
2023/06/15 00:32:54;;;;;;;5.40;4.10;;;;;;;16.89;100.00;100447.93;105848;1254;72886;-82
2023/06/15 00:35:23;;;;;;;7.10;4.20;;;;;;;16.90;100.00;100441.80;105892;1254;62499;-82
2023/06/15 00:37:49;;;;;;;7.00;5.60;;;;;;;16.92;100.00;100441.66;106847;1252;72647;-82
2023/06/15 00:40:17;;;;;;;7.80;4.20;;;;;;;16.91;100.00;100439.77;107587;1253;60762;-82
2023/06/15 00:42:45;;;;;;;6.50;4.20;;;;;;;16.89;100.00;100437.70;107114;1254;60357;-82
2023/06/15 00:45:11;;;;;;;8.70;4.30;;;;;;;16.86;100.00;100437.94;105667;1254;73906;-84
2023/06/15 00:47:39;;;;;;;8.00;4.90;;;;;;;16.85;100.00;100433.98;105881;1256;63806;-82
2023/06/15 00:50:09;;;;;;;5.10;4.20;;;;;;;16.85;100.00;100428.17;105972;1254;72516;-84
2023/06/15 00:52:36;;;;;;;6.40;4.20;;;;;;;16.83;100.00;100432.41;105804;1254;60971;-86
2023/06/15 00:55:04;;;;;;;6.50;4.70;;;;;;;16.81;100.00;100432.77;105965;1254;61505;-87
2023/06/15 00:57:32;;;;;;;5.10;4.70;;;;;;;16.78;100.00;100437.36;105805;1254;71456;-88
2023/06/15 01:00:00;;;;;;;6.70;4.60;;;;;;;16.76;100.00;100436.31;105863;1254;62731;-85
2023/06/15 01:02:29;;;;;;;8.20;5.90;;;;;;;16.71;100.00;100436.23;105911;1256;72666;-86
2023/06/15 01:04:55;;;;;;;7.90;4.70;;;;;;;16.65;100.00;100429.38;105807;1254;61156;-84
2023/06/15 01:07:27;;;;;;;5.80;4.70;;;;;;;16.62;100.00;100433.34;105770;1252;60489;-85
2023/06/15 01:09:57;;;;;;;7.00;5.50;;;;;;;16.58;100.00;100432.23;105786;1254;73737;-86
2023/06/15 01:12:24;;;;;;;6.80;5.20;;;;;;;16.55;100.00;100433.53;105879;1256;64813;-85
2023/06/15 01:14:53;;;;;;;6.70;4.60;;;;;;;16.53;100.00;100434.10;105931;1254;72148;-86
2023/06/15 01:17:23;;;;;;;11.10;4.40;;;;;;;16.52;100.00;100427.53;105786;1256;61786;-86
2023/06/15 01:19:57;;;;;;;8.00;4.70;;;;;;;16.50;100.00;100426.90;106155;1254;60539;-86
2023/06/15 01:22:49;;;;;;;9.70;5.00;;;;;;;16.48;100.00;100422.77;105913;1252;75116;-85
2023/06/15 01:25:39;;;;;;;8.40;4.90;;;;;;;16.44;100.00;100425.16;105960;1256;62510;-84
2023/06/15 01:28:07;;;;;;;6.10;5.10;;;;;;;16.42;100.00;100422.92;105888;1256;72492;-87
2023/06/15 01:30:42;;;;;;;7.30;5.20;;;;;;;16.39;100.00;100415.09;105775;1256;61815;-85
2023/06/15 01:33:09;;;;;;;6.40;4.70;;;;;;;16.36;100.00;100414.75;105924;1256;60443;-86
2023/06/15 01:35:38;;;;;;;7.60;5.20;;;;;;;16.34;100.00;100414.41;106051;1256;73775;-86
2023/06/15 01:38:09;;;;;;;9.10;4.00;;;;;;;16.32;100.00;100421.31;105954;1253;62501;-86
2023/06/15 01:40:38;;;;;;;5.70;4.80;;;;;;;16.29;100.00;100421.52;105944;1254;72677;-87
2023/06/15 01:43:07;;;;;;;7.40;5.60;;;;;;;16.25;100.00;100428.46;105920;1256;62715;-84
2023/06/15 01:45:34;;;;;;;8.50;5.00;;;;;;;16.19;100.00;100432.30;105845;1256;60437;-86
2023/06/15 01:48:02;;;;;;;8.10;5.40;;;;;;;16.16;100.00;100435.06;107796;1252;72478;-87
2023/06/15 01:50:29;;;;;;;8.00;5.40;;;;;;;16.13;100.00;100437.88;105996;1256;63761;-84
2023/06/15 01:52:57;;;;;;;6.50;5.00;;;;;;;16.12;100.00;100435.05;105822;1254;72588;-86
2023/06/15 01:55:24;;;;;;;8.90;5.50;;;;;;;16.10;100.00;100432.20;105844;1252;60845;-84
2023/06/15 01:57:52;;;;;;;7.80;5.50;;;;;;;16.09;100.00;100439.38;106154;1253;60458;-84
2023/06/15 02:00:21;;;;;;;10.50;4.90;;;;;;;16.07;100.00;100439.30;105823;1256;72397;-84
2023/06/15 02:02:48;;;;;;;11.20;6.60;;;;;;;16.07;100.00;100437.92;105900;1256;63655;-86
2023/06/15 02:05:15;;;;;;;8.80;5.70;;;;;;;16.07;100.00;100433.90;105664;1254;71697;-85
2023/06/15 02:07:44;;;;;;;6.30;5.00;;;;;;;16.07;100.00;100428.21;105922;1256;61893;-84
2023/06/15 02:10:11;;;;;;;10.70;5.00;;;;;;;16.06;100.00;100427.09;106073;1254;61196;-85
2023/06/15 02:12:38;;;;;;;5.70;5.20;;;;;;;16.06;100.00;100427.61;106340;1256;73788;-85
2023/06/15 02:15:13;;;;;;;6.10;5.50;;;;;;;16.06;100.00;100428.50;106925;1256;63688;-84
2023/06/15 02:17:41;;;;;;;6.50;5.80;;;;;;;16.05;100.00;100423.45;106077;1252;72716;-85
2023/06/15 02:20:09;;;;;;;9.10;5.80;;;;;;;16.05;100.00;100423.98;106657;1256;60540;-83
2023/06/15 02:22:38;;;;;;;9.00;6.10;;;;;;;16.05;100.00;100427.68;106161;1254;60519;-83
2023/06/15 02:25:05;;;;;;;6.60;5.60;;;;;;;16.06;100.00;100431.34;106163;1256;73727;-84
2023/06/15 02:27:32;;;;;;;7.40;5.00;;;;;;;16.06;100.00;100433.98;105742;1253;63461;-88
2023/06/15 02:30:02;;;;;;;10.30;5.70;;;;;;;16.05;100.00;100432.44;106018;1254;72537;-85
2023/06/15 02:32:34;;;;;;;6.80;4.90;;;;;;;16.07;100.00;100432.82;105828;1256;61745;-84
2023/06/15 02:35:05;;;;;;;8.40;5.00;;;;;;;16.11;100.00;100433.02;105755;1261;60496;-84
2023/06/15 02:37:32;;;;;;;8.60;4.70;;;;;;;16.14;100.00;100431.82;105905;1256;73821;-85
2023/06/15 02:39:59;;;;;;;6.00;4.80;;;;;;;16.20;100.00;100433.33;105855;1256;63518;-84
2023/06/15 02:42:26;;;;;;;6.30;5.10;;;;;;;16.25;100.00;100427.00;105641;1254;72561;-87
2023/06/15 02:44:53;;;;;;;8.00;5.00;;;;;;;16.32;100.00;100427.65;105803;1256;61962;-85
2023/06/15 02:47:20;;;;;;;7.70;5.20;;;;;;;16.38;100.00;100427.15;105742;1258;60518;-86
2023/06/15 02:49:47;;;;;;;8.80;5.50;;;;;;;16.45;100.00;100426.89;105872;1254;73931;-87
2023/06/15 02:52:14;;;;;;;9.40;5.10;;;;;;;16.51;100.00;100427.23;105844;1256;64984;-84
2023/06/15 02:54:41;;;;;;;5.20;4.60;;;;;;;16.54;100.00;100423.38;105760;1252;71421;-86
2023/06/15 02:57:09;;;;;;;10.40;5.30;;;;;;;16.57;100.00;100428.29;106031;1254;60809;-85
2023/06/15 02:59:44;;;;;;;5.50;5.00;;;;;;;16.60;100.00;100423.06;105930;1254;60463;-89
2023/06/15 03:02:16;;;;;;;8.50;5.40;;;;;;;16.65;100.00;100421.77;105881;1256;72063;-83
2023/06/15 03:04:47;;;;;;;9.30;5.70;;;;;;;16.70;100.00;100426.27;107117;1256;63909;-83
2023/06/15 03:07:23;;;;;;;9.30;5.90;;;;;;;16.76;100.00;100426.10;107583;1251;71849;-86
2023/06/15 03:10:03;;;;;;;6.90;4.60;;;;;;;16.81;100.00;100430.58;108957;1252;60863;-85
2023/06/15 03:12:31;;;;;;;6.70;5.20;;;;;;;16.86;100.00;100431.36;109628;1254;58980;-84
2023/06/15 03:15:01;;;;;;;7.40;5.80;;;;;;;16.92;100.00;100433.16;107889;1253;72929;-85
2023/06/15 03:17:32;;;;;;;8.20;5.60;;;;;;;16.97;100.00;100433.94;106118;1256;62693;-87
2023/06/15 03:20:00;;;;;;;7.90;4.90;;;;;;;17.03;100.00;100429.20;105766;1256;72716;-84
2023/06/15 03:22:27;;;;;;;6.10;5.10;;;;;;;17.08;100.00;100434.16;105772;1254;61654;-85
2023/06/15 03:24:55;;;;;;;7.60;5.50;;;;;;;17.14;100.00;100433.11;105790;1254;60635;-87
2023/06/15 03:27:22;;;;;;;9.00;4.90;;;;;;;17.19;100.00;100431.42;105913;1256;73862;-84
2023/06/15 03:29:51;;;;;;;7.10;4.80;;;;;;;17.25;100.00;100430.95;105971;1254;62422;-85
2023/06/15 03:32:18;;;;;;;8.40;5.80;;;;;;;17.29;100.00;100432.28;105930;1256;72702;-86
2023/06/15 03:34:45;;;;;;;9.00;5.40;;;;;;;17.33;100.00;100434.54;105932;1255;61958;-85
2023/06/15 03:37:14;;;;;;;6.00;4.70;;;;;;;17.37;100.00;100438.93;105968;1253;62094;-84
2023/06/15 03:39:42;;;;;;;7.20;4.40;;;;;;;17.42;100.00;100440.86;105872;1256;73340;-89
2023/06/15 03:42:11;;;;;;;7.30;5.10;;;;;;;17.46;100.00;100436.09;105961;1255;63666;-84
2023/06/15 03:44:37;;;;;;;5.90;5.30;;;;;;;17.48;100.00;100434.10;105958;1256;72674;-85
2023/06/15 03:47:04;;;;;;;9.50;4.80;;;;;;;17.52;100.00;100428.05;105888;1256;60780;-83
2023/06/15 03:49:36;;;;;;;4.90;4.50;;;;;;;17.57;100.00;100428.82;106009;1252;60543;-86
2023/06/15 03:52:03;;;;;;;4.80;4.30;;;;;;;17.63;100.00;100431.33;106025;1256;73979;-85
2023/06/15 03:54:32;;;;;;;7.20;5.40;;;;;;;17.69;100.00;100434.43;105717;1259;63746;-85
2023/06/15 03:56:59;;;;;;;8.00;5.20;;;;;;;17.76;100.00;100440.70;105757;1257;72642;-85
2023/06/15 03:59:27;;;;;;;8.10;5.30;;;;;;;17.82;100.00;100436.30;105812;1256;61805;-88
2023/06/15 04:01:57;;;;;;;6.50;5.10;;;;;;;17.86;100.00;100434.65;106075;1254;60828;-87
2023/06/15 04:04:24;;;;;;;9.40;5.30;;;;;;;17.90;100.00;100433.75;105681;1254;73948;-85
2023/06/15 04:06:52;;;;;;;11.00;4.80;;;;;;;17.97;100.00;100435.54;106287;1256;63519;-83
2023/06/15 04:09:19;;;;;;;7.90;5.20;;;;;;;18.08;100.00;100440.23;106088;1261;70759;-89
2023/06/15 04:11:47;;;;;;;6.20;5.20;;;;;;;18.18;100.00;100439.27;106267;1253;61837;-82
2023/06/15 04:14:15;;;;;;;9.70;5.20;;;;;;;18.27;100.00;100437.86;107315;1254;60411;-84
2023/06/15 04:16:42;;;;;;;6.80;4.90;;;;;;;18.43;100.00;100436.16;107809;1254;72521;-80
2023/06/15 04:19:09;;;;;;;8.80;5.70;;;;;;;18.66;100.00;100432.05;106561;1256;62392;-87
2023/06/15 04:21:36;;;;;;;6.00;4.80;;;;;;;18.88;100.00;100439.06;106001;1254;72545;-84
2023/06/15 04:24:04;;;;;;;7.30;5.20;;;;;;;19.08;100.00;100438.67;106133;1256;60736;-86
2023/06/15 04:26:31;;;;;;;9.40;4.70;;;;;;;19.25;100.00;100441.30;105911;1256;60460;-87
2023/06/15 04:29:02;;;;;;;11.00;5.70;;;;;;;19.44;100.00;100442.77;105889;1254;73898;-87
2023/06/15 04:31:33;;;;;;;9.00;5.40;;;;;;;19.59;100.00;100447.66;107474;1256;64583;-85
2023/06/15 04:34:06;;;;;;;7.60;5.60;;;;;;;19.69;100.00;100447.52;106080;1256;73301;-84
2023/06/15 04:36:38;;;;;;;8.20;6.70;;;;;;;19.76;100.00;100446.84;106928;1253;60510;-83
2023/06/15 04:39:06;;;;;;;7.50;5.30;;;;;;;19.78;100.00;100448.92;106695;1254;60375;-84
2023/06/15 04:41:35;;;;;;;9.20;6.00;;;;;;;19.81;100.00;100452.39;106446;1254;73828;-83
2023/06/15 04:44:04;;;;;;;10.20;5.50;;;;;;;19.91;100.00;100456.45;106173;1256;63660;-84
2023/06/15 04:46:42;;;;;;;7.50;5.50;;;;;;;20.02;100.00;100456.78;105788;1254;71445;-86
2023/06/15 04:49:10;;;;;;;10.70;5.70;;;;;;;20.10;100.00;100458.30;105890;1255;61482;-85
2023/06/15 04:51:38;;;;;;;13.20;7.30;;;;;;;20.15;100.00;100461.88;105763;1256;60432;-86
2023/06/15 04:54:06;;;;;;;10.90;7.50;;;;;;;20.17;100.00;100461.83;105799;1256;72921;-86
2023/06/15 04:56:33;;;;;;;10.70;6.10;;;;;;;20.20;100.00;100463.52;105880;1256;63973;-86
2023/06/15 04:59:00;;;;;;;8.40;5.60;;;;;;;20.23;100.00;100461.34;105939;1257;72813;-88
2023/06/15 05:01:28;;;;;;;9.10;5.90;;;;;;;20.25;100.00;100464.00;105924;1256;61765;-85
2023/06/15 05:03:58;;;;;;;9.10;6.40;;;;;;;20.25;100.00;100464.30;105702;1253;60602;-85
2023/06/15 05:06:26;;;;;;;7.00;5.70;;;;;;;20.27;100.00;100463.61;105840;1259;72480;-85
2023/06/15 05:08:56;;;;;;;12.70;7.10;;;;;;;20.26;100.00;100458.14;105840;1259;63994;-84
2023/06/15 05:11:29;;;;;;;8.90;6.80;;;;;;;20.26;100.00;100456.38;105701;1259;73763;-85
2023/06/15 05:13:57;;;;;;;8.10;6.60;;;;;;;20.31;100.00;100461.84;105639;1260;62101;-86
2023/06/15 05:16:24;;;;;;;8.30;5.70;;;;;;;20.34;100.00;100455.86;105547;1261;60592;-85
2023/06/15 05:18:52;;;;;;;10.60;7.70;;;;;;;20.37;100.00;100454.67;107762;1253;72442;-82
2023/06/15 05:21:21;;;;;;;8.50;7.70;;;;;;;20.40;100.00;100454.08;106076;1253;64184;-83
2023/06/15 05:23:48;;;;;;;11.90;6.80;;;;;;;20.43;100.00;100459.44;106110;1257;72700;-88
2023/06/15 05:26:17;;;;;;;9.50;7.40;;;;;;;20.48;100.00;100461.65;105819;1258;62035;-88
2023/06/15 05:28:57;;;;;;;7.20;6.10;;;;;;;20.53;100.00;100457.41;105907;1254;60575;-87
2023/06/15 05:31:25;;;;;;;10.80;6.80;;;;;;;20.58;100.00;100454.45;105868;1256;73828;-86
2023/06/15 05:33:52;;;;;;;9.40;7.10;;;;;;;20.62;100.00;100454.37;106403;1253;63776;-85
2023/06/15 05:36:20;;;;;;;10.50;6.40;;;;;;;20.72;100.00;100453.27;106423;1260;71246;-85
2023/06/15 05:39:07;;;;;;;9.40;6.00;;;;;;;20.83;100.00;100450.30;105906;1259;60648;-84
2023/06/15 05:41:35;;;;;;;9.90;7.90;;;;;;;20.94;100.00;100448.83;105879;1253;60530;-85
2023/06/15 05:44:02;;;;;;;11.30;8.10;;;;;;;21.05;100.00;100445.70;105750;1254;72877;-84
2023/06/15 05:46:29;;;;;;;11.00;6.60;;;;;;;21.20;100.00;100447.09;105646;1259;63806;-84
2023/06/15 05:48:57;;;;;;;7.40;5.80;;;;;;;21.45;100.00;100443.92;105990;1253;72568;-84
2023/06/15 05:51:25;;;;;;;8.40;5.70;;;;;;;21.93;100.00;100443.30;105758;1259;61795;-84
2023/06/15 05:53:52;;;;;;;7.60;6.20;;;;;;;22.54;100.00;100441.64;105783;1253;60586;-82
2023/06/15 05:56:19;;;;;;;8.20;6.90;;;;;;;23.21;100.00;100446.20;105864;1253;73848;-86
2023/06/15 05:58:47;;;;;;;7.70;6.20;;;;;;;23.75;100.00;100450.00;105840;1253;62897;-84
2023/06/15 06:01:13;;;;;;;7.30;5.20;;;;;;;24.24;100.00;100445.10;105797;1259;71471;-86
2023/06/15 06:03:41;;;;;;;8.70;6.00;;;;;;;24.59;100.00;100446.60;105806;1258;60549;-86
2023/06/15 06:06:08;;;;;;;6.30;5.70;;;;;;;24.90;100.00;100448.32;105835;1254;60536;-86
2023/06/15 06:08:37;;;;;;;8.30;5.50;;;;;;;25.04;100.00;100444.14;106151;1256;74919;-86
2023/06/15 06:11:07;;;;;;;8.50;5.80;;;;;;;25.25;100.00;100445.16;105864;1254;63724;-85
2023/06/15 06:13:40;;;;;;;10.00;5.40;;;;;;;25.55;100.00;100442.17;105836;1257;72538;-87
2023/06/15 06:16:07;;;;;;;8.80;5.20;;;;;;;25.95;100.00;100438.88;105959;1256;61199;-86
2023/06/15 06:18:34;;;;;;;7.20;5.10;;;;;;;26.37;99.47;100440.69;105821;1253;60460;-85
2023/06/15 06:21:01;;;;;;;14.10;5.90;;;;;;;26.77;97.10;100441.89;105918;1255;73958;-86
2023/06/15 06:23:28;;;;;;;9.00;6.10;;;;;;;27.11;93.94;100440.30;105785;1254;61881;-86
2023/06/15 06:26:01;;;;;;;8.90;5.40;;;;;;;27.47;91.89;100442.10;106395;1253;72674;-85
2023/06/15 06:28:31;;;;;;;8.60;5.20;;;;;;;27.75;90.45;100441.25;106226;1259;60537;-87
2023/06/15 06:30:58;;;;;;;8.00;5.40;;;;;;;27.97;89.44;100437.38;105825;1258;60455;-85
2023/06/15 06:56:51;;;;;;;9.90;6.10;;;;;;;26.02;93.99;100448.36;102821;1295;600053;-86
2023/06/15 06:59:19;;;;;;;12.00;7.00;;;;;;;25.95;93.69;100448.73;105046;1264;60826;-85
2023/06/15 07:02:07;;;;;;;10.70;7.10;;;;;;;25.85;93.34;100444.96;105139;1269;59326;-86
2023/06/15 07:04:35;;;;;;;8.70;5.00;;;;;;;25.77;93.51;100441.09;104990;1264;71351;-85
2023/06/15 07:07:02;;;;;;;12.00;6.70;;;;;;;25.89;94.15;100442.35;105094;1264;62002;-85
2023/06/15 07:09:30;;;;;;;13.00;6.20;;;;;;;26.04;94.24;100444.90;105653;1257;681937;-85
2023/06/15 07:11:58;;;;;;;26.60;24.20;;;;;;;26.34;92.85;100439.67;106878;1257;62326;-81
2023/06/15 07:14:26;;;;;;;7.20;6.50;;;;;;;26.59;90.90;100441.01;107573;1253;58901;-81
2023/06/15 07:16:54;;;;;;;10.10;6.70;;;;;;;26.75;89.33;100444.31;107588;1251;71678;-85
2023/06/15 07:19:21;;;;;;;11.20;6.20;;;;;;;26.86;88.87;100440.34;108117;1251;62334;-83
2023/06/15 07:21:49;;;;;;;9.50;5.80;;;;;;;26.98;89.46;100446.00;108717;1255;71647;-85
2023/06/15 07:24:16;;;;;;;8.70;5.00;;;;;;;27.11;88.30;100446.44;109726;1250;58899;-84
2023/06/15 07:26:44;;;;;;;85.40;77.10;;;;;;;27.19;86.45;100442.23;109801;1249;59266;-86
2023/06/15 07:29:12;;;;;;;10.60;9.20;;;;;;;27.29;85.76;100443.15;107724;1250;71386;-83
2023/06/15 07:31:39;;;;;;;12.10;5.70;;;;;;;27.38;86.07;100444.46;106076;1255;63667;-85
2023/06/15 07:34:07;;;;;;;10.50;6.20;;;;;;;27.51;84.78;100439.31;106197;1251;72765;-85
2023/06/15 07:36:35;;;;;;;6.50;4.90;;;;;;;27.69;84.50;100438.73;106160;1250;59884;-86
2023/06/15 07:39:02;;;;;;;7.70;5.20;;;;;;;28.00;84.33;100438.69;105938;1251;60021;-86
2023/06/15 07:41:30;;;;;;;7.30;5.70;;;;;;;28.22;83.30;100439.89;106041;1257;71816;-84
2023/06/15 07:43:57;;;;;;;8.40;5.40;;;;;;;28.39;82.34;100441.38;106036;1251;64936;-85
2023/06/15 07:46:25;;;;;;;10.70;5.40;;;;;;;28.43;80.87;100439.59;106187;1256;73144;-83
2023/06/15 07:48:53;;;;;;;43.90;40.10;;;;;;;28.57;80.55;100432.71;106976;1250;60107;-86
2023/06/15 07:51:20;;;;;;;15.10;9.20;;;;;;;28.75;79.48;100431.73;106260;1250;60557;-83
2023/06/15 07:54:08;;;;;;;10.10;6.00;;;;;;;28.72;76.83;100433.05;106036;1256;72851;-85
2023/06/15 07:56:35;;;;;;;9.10;4.80;;;;;;;28.48;74.63;100431.95;106075;1256;63041;-84
2023/06/15 07:59:03;;;;;;;8.10;5.60;;;;;;;28.32;76.77;100436.59;106058;1257;72691;-85
2023/06/15 08:01:30;;;;;;;8.60;5.20;;;;;;;28.32;79.06;100432.51;105987;1256;60099;-86
2023/06/15 08:04:02;;;;;;;8.80;6.10;;;;;;;28.41;79.19;100433.63;105946;1251;59593;-87
2023/06/15 08:06:30;;;;;;;8.80;5.00;;;;;;;28.58;78.79;100433.29;106279;1256;73007;-83
2023/06/15 08:08:58;;;;;;;10.10;9.10;;;;;;;28.70;79.13;100433.69;109769;1250;62476;-84
2023/06/15 08:11:26;;;;;;;8.10;5.80;;;;;;;28.79;76.39;100437.50;109888;1250;72250;-85
2023/06/15 08:13:53;;;;;;;9.00;6.30;;;;;;;28.75;75.43;100433.62;109746;1251;58783;-85
2023/06/15 08:16:21;;;;;;;7.40;4.70;;;;;;;28.58;75.69;100435.36;109950;1249;58760;-84
2023/06/15 08:18:49;;;;;;;5.10;3.80;;;;;;;28.51;77.40;100437.64;109892;1250;73588;-84
2023/06/15 08:21:17;;;;;;;9.70;5.20;;;;;;;28.44;78.38;100427.59;109925;1250;62700;-85
2023/06/15 08:23:45;;;;;;;9.20;4.30;;;;;;;28.34;77.10;100424.02;109802;1250;72710;-86
2023/06/15 08:26:12;;;;;;;6.30;4.00;;;;;;;28.18;76.95;100420.55;109887;1250;61149;-85
2023/06/15 08:28:40;;;;;;;15.10;7.10;;;;;;;28.17;77.41;100417.27;109430;1250;61000;-85
2023/06/15 08:31:14;;;;;;;7.30;4.60;;;;;;;28.31;78.45;100415.48;109731;1250;71632;-84
2023/06/15 08:33:41;;;;;;;5.40;4.10;;;;;;;28.42;80.47;100418.70;109464;1250;62480;-85
2023/06/15 08:36:10;;;;;;;10.80;4.80;;;;;;;28.56;80.37;100422.35;109815;1249;71195;-84
2023/06/15 08:38:38;;;;;;;6.70;4.60;;;;;;;28.50;76.32;100425.30;108960;1250;59661;-84
2023/06/15 08:41:06;;;;;;;8.80;5.00;;;;;;;28.30;75.31;100427.20;109412;1250;59605;-85
2023/06/15 08:43:33;;;;;;;10.70;5.40;;;;;;;28.10;76.32;100421.17;109170;1249;71664;-85
2023/06/15 08:46:01;;;;;;;7.20;5.10;;;;;;;28.01;79.17;100419.52;108670;1251;62381;-87
2023/06/15 08:48:29;;;;;;;5.30;4.70;;;;;;;28.05;80.43;100416.83;106460;1251;71045;-85
2023/06/15 08:50:56;;;;;;;6.80;4.50;;;;;;;28.13;80.35;100415.19;106393;1254;59730;-83
2023/06/15 08:53:24;;;;;;;8.80;4.80;;;;;;;28.19;79.35;100413.46;106460;1251;59625;-85
2023/06/15 08:55:53;;;;;;;10.50;5.90;;;;;;;28.28;78.74;100411.43;106925;1255;71875;-85
2023/06/15 08:58:21;;;;;;;12.90;5.80;;;;;;;28.36;81.20;100407.84;106496;1250;63144;-90
2023/06/15 09:00:48;;;;;;;6.50;4.50;;;;;;;28.38;79.78;100411.58;106034;1256;72535;-87
2023/06/15 09:03:16;;;;;;;9.80;4.60;;;;;;;28.58;80.84;100407.31;106071;1258;60116;-88
2023/06/15 09:05:44;;;;;;;6.20;3.90;;;;;;;28.70;77.89;100408.81;106228;1250;59667;-90
2023/06/15 09:08:12;;;;;;;6.30;3.90;;;;;;;28.79;76.03;100406.06;106215;1254;73150;-90
2023/06/15 09:10:41;;;;;;;8.90;4.30;;;;;;;28.85;74.87;100406.01;106091;1250;62768;-86
2023/06/15 09:13:15;;;;;;;6.60;4.50;;;;;;;28.83;69.85;100402.46;106072;1251;71489;-86
2023/06/15 09:27:54;;;;;;;7.30;4.20;;;;;;;28.58;74.43;100403.23;103394;1288;614817;-85
2023/06/15 09:30:34;;;;;;;9.00;5.00;;;;;;;28.70;76.11;100410.42;105487;1269;60320;-86
2023/06/15 09:33:15;;;;;;;5.40;3.40;;;;;;;28.72;75.07;100410.70;105860;1257;59263;-85
2023/06/15 09:35:56;;;;;;;5.70;4.20;;;;;;;28.85;76.04;100408.71;105935;1257;71433;-84
2023/06/15 09:38:44;;;;;;;7.70;4.30;;;;;;;28.89;74.48;100406.69;105985;1260;63901;-85
2023/06/15 09:41:14;;;;;;;7.10;4.50;;;;;;;28.75;72.99;100408.70;105188;1253;1198292;-86
2023/06/15 09:43:41;;;;;;;5.50;4.10;;;;;;;28.52;73.96;100407.48;106267;1258;60318;-87
2023/06/15 09:46:19;;;;;;;8.80;5.20;;;;;;;28.26;76.01;100407.16;106288;1260;59250;-84
2023/06/15 09:48:49;;;;;;;8.80;4.40;;;;;;;28.07;78.89;100408.48;106276;1254;72354;-85
2023/06/15 09:51:16;;;;;;;24.70;22.20;;;;;;;27.98;80.92;100404.86;106118;1253;62781;-84
2023/06/15 09:53:43;;;;;;;20.90;19.00;;;;;;;27.87;81.32;100407.38;106251;1254;71306;-86
2023/06/15 09:56:10;;;;;;;10.10;8.40;;;;;;;27.87;81.60;100405.75;106358;1257;60140;-84
2023/06/15 09:58:57;;;;;;;12.20;5.80;;;;;;;27.97;82.20;100400.55;106518;1254;59734;-85
2023/06/15 10:01:25;;;;;;;13.60;8.10;;;;;;;28.13;81.15;100401.95;106301;1254;72687;-85
2023/06/15 10:03:52;;;;;;;7.60;6.30;;;;;;;28.20;79.65;100403.30;108122;1253;62813;-85
2023/06/15 10:06:20;;;;;;;8.10;6.40;;;;;;;28.22;79.54;100403.17;108572;1254;71277;-84
2023/06/15 10:08:51;;;;;;;8.50;4.90;;;;;;;28.20;79.53;100400.52;107635;1255;60239;-85
2023/06/15 10:11:21;;;;;;;9.20;4.50;;;;;;;28.17;79.35;100397.99;107503;1251;60404;-86
2023/06/15 10:13:51;;;;;;;12.40;6.00;;;;;;;28.17;79.71;100398.78;106558;1251;71840;-85
2023/06/15 10:16:18;;;;;;;9.60;5.80;;;;;;;28.26;81.29;100400.63;108183;1251;63913;-84
2023/06/15 10:18:45;;;;;;;8.60;5.10;;;;;;;28.43;80.79;100395.73;109744;1251;71249;-85
2023/06/15 19:14:35;;;;;;;10.20;4.90;;;;;;;20.15;100.00;100462.39;102746;1289;616122;-87
2023/06/15 19:17:10;;;;;;;10.20;5.40;;;;;;;20.11;100.00;100461.56;105241;1264;62156;-86
2023/06/15 19:19:38;;;;;;;6.10;4.50;;;;;;;20.10;100.00;100463.80;106440;1264;60651;-86
2023/06/15 19:22:08;;;;;;;8.40;4.70;;;;;;;20.07;100.00;100468.55;105731;1264;72301;-85
2023/06/15 19:24:36;;;;;;;8.60;4.60;;;;;;;20.04;100.00;100468.51;105346;1268;63992;-87
2023/06/15 19:27:04;;;;;;;8.50;4.10;;;;;;;20.01;100.00;100466.84;105085;1263;900996;-85
2023/06/15 19:29:32;;;;;;;7.70;4.70;;;;;;;20.00;100.00;100467.86;105858;1254;60460;-86
2023/06/15 19:32:00;;;;;;;10.90;4.90;;;;;;;19.99;100.00;100466.70;105936;1254;60053;-87
2023/06/15 19:34:29;;;;;;;13.00;5.50;;;;;;;19.97;100.00;100466.54;105849;1254;72217;-88
2023/06/15 19:36:56;;;;;;;12.20;5.00;;;;;;;19.94;100.00;100470.25;105764;1254;63636;-87
2023/06/15 19:39:24;;;;;;;6.90;4.50;;;;;;;19.90;100.00;100472.02;106014;1257;71297;-88
2023/06/15 19:41:51;;;;;;;11.40;5.50;;;;;;;19.86;100.00;100475.09;106138;1256;61870;-89
2023/06/15 19:44:25;;;;;;;10.90;6.20;;;;;;;19.84;100.00;100478.67;106117;1254;59739;-87
2023/06/15 19:46:56;;;;;;;17.50;6.70;;;;;;;19.83;100.00;100475.96;106099;1251;71860;-86
2023/06/15 19:49:24;;;;;;;10.50;5.90;;;;;;;19.81;100.00;100477.34;106061;1256;63716;-88
2023/06/15 19:51:51;;;;;;;15.70;6.20;;;;;;;19.79;100.00;100474.88;105953;1257;72693;-88
2023/06/15 19:54:18;;;;;;;12.20;6.00;;;;;;;19.78;100.00;100477.89;106051;1256;62076;-89
2023/06/15 19:56:45;;;;;;;9.50;4.80;;;;;;;19.76;100.00;100480.04;106079;1251;60183;-88
2023/06/15 19:59:11;;;;;;;7.40;4.90;;;;;;;19.75;100.00;100481.73;106080;1253;72923;-86
2023/06/15 20:01:39;;;;;;;8.60;5.80;;;;;;;19.74;100.00;100485.17;105890;1251;62810;-85
2023/06/15 20:04:06;;;;;;;10.50;5.40;;;;;;;19.73;100.00;100484.55;106028;1255;72556;-87
2023/06/15 20:06:35;;;;;;;11.70;5.30;;;;;;;19.74;100.00;100485.08;105850;1256;61566;-87
2023/06/15 20:09:02;;;;;;;6.10;5.10;;;;;;;19.71;100.00;100483.51;106069;1251;60145;-85
2023/06/15 20:11:29;;;;;;;9.30;5.50;;;;;;;19.69;100.00;100481.63;106021;1251;71666;-88
2023/06/15 20:13:57;;;;;;;8.70;5.00;;;;;;;19.67;100.00;100479.63;105919;1257;65374;-85
2023/06/15 20:16:24;;;;;;;6.70;5.40;;;;;;;19.67;100.00;100478.73;105876;1257;71185;-86
2023/06/15 20:18:52;;;;;;;7.10;5.50;;;;;;;19.67;100.00;100474.84;105970;1257;61960;-86
2023/06/15 20:21:29;;;;;;;10.20;5.30;;;;;;;19.66;100.00;100473.13;106042;1251;60068;-89
2023/06/15 20:23:56;;;;;;;8.60;4.90;;;;;;;19.65;100.00;100475.10;106001;1256;71599;-85
2023/06/15 20:26:25;;;;;;;6.70;5.30;;;;;;;19.63;100.00;100474.88;105915;1251;61800;-87
2023/06/15 20:28:52;;;;;;;7.60;5.40;;;;;;;19.62;100.00;100474.77;106110;1252;72579;-87
2023/06/15 20:31:21;;;;;;;10.20;5.80;;;;;;;19.61;100.00;100475.35;106119;1257;61728;-86
2023/06/15 20:33:49;;;;;;;10.90;6.50;;;;;;;19.60;100.00;100476.30;106143;1253;60460;-87
2023/06/15 20:36:15;;;;;;;9.60;6.40;;;;;;;19.57;100.00;100479.04;105866;1251;71820;-85
2023/06/15 20:38:43;;;;;;;12.90;6.30;;;;;;;19.54;100.00;100476.35;105920;1252;63735;-86
2023/06/15 20:41:09;;;;;;;13.20;5.70;;;;;;;19.52;100.00;100476.25;105992;1252;72649;-84
2023/06/15 20:43:36;;;;;;;7.90;5.50;;;;;;;19.47;100.00;100472.44;106024;1251;61918;-86
2023/06/15 20:46:03;;;;;;;10.40;6.10;;;;;;;19.42;100.00;100473.27;106027;1251;60379;-86